Aérodrome :
LOGIN :

S'inscrire | Disclaimer

   EN    FR    IT 

 










Légende :    VFR   VFR Marginal   IFR   IFR Intensif   IFR Très Intensif
Visi : 
Plafond : 
>= 8 km
>= 3000ft
5 à 8 km
1000 à 3000 ft
1500m à 5 km
500 à 1000 ft
800 à 1500m
200 à 500 ft
< 800m
< 200 ft
Symboles :   Orages  Brouillard  Fortes neiges  Fortes précipitations  Vent > 20 kt
SIGMETs :   Divers  Orages  Givrage  Turbulence  Onde Orograph.  Cendres Volcan.






- Altitude de l'aérodrome : 39 ft
- Code IATA : ANR


EBAW - Anvers / Antwerpen Deurne

DERNIER METAR :
  • 230820Z 23010KT 200V260 9999 BKN026 16/11 Q1015 NOSIG

METARs EXPIRÉS :
  • 230750Z 24009KT 210V270 9999 BKN026 15/11 Q1014 NOSIG
  • 230720Z 22007KT 190V250 9999 FEW015 15/11 Q1014 NOSIG
  • 230650Z 23007KT 180V250 9999 FEW015 15/11 Q1014 NOSIG
  • 230620Z 22007KT 190V250 9999 BKN024 14/11 Q1014 NOSIG
  • 230550Z 22006KT 190V250 9999 BKN024 14/11 Q1014 NOSIG
  • 230520Z 21007KT 9999 SCT024 13/11 Q1014 NOSIG
  • 230450Z 21006KT 180V240 9999 SCT024 13/10 Q1013 NOSIG
  • 230420Z AUTO 21005KT 9999 // VV/// 13/10 Q1013
  • 230350Z AUTO 21008KT 9999 // OVC024/// 13/10 Q1013

TAF TAF EBAW
Valide du 23 à 09h jusqu'au 23 à 18h UTC


230800Z 2309/2318 24008KT 9999 FEW018
PROB30
TEMPO 2312/2318 3000 SHRA TSRA BKN035CB



MET'MAP, la Météo Aéronautique d'un coup d'oeil ! - Copyright ORBIFLY Décembre 2007 - Disclaimer

ORBIFLY MET'MAP TEAM :

Programmation & Développement : Alexandra Zaïnal
Sur une idée originale de : Baudouin d'Aumeries
Soutien technique & logistique : Manuel Goepfert
Assistance : Marc-Olivier Méhu




SOURCES & CREDITS :

   NOAA